Time;durP1;ratioP1;P1;durP2;ratioP2;P2;SDS_P1;SDS_P2;PMS_P1;PMS_P2;Temp;Humidity;BMP_temperature;BMP_pressure;BME280_temperature;BME280_humidity;BME280_pressure;Samples;Min_cycle;Max_cycle;Signal;HPM_P1;HPM_P2
2023/01/15 00:01:21;;;;;;;6.10;1.58;;;3.40;99.90;;;;;;4903485;29;20111;-89
2023/01/15 00:03:47;;;;;;;9.15;2.72;;;3.40;99.90;;;;;;4920881;29;20506;-91
2023/01/15 00:06:14;;;;;;;12.75;1.85;;;3.40;99.90;;;;;;4917167;29;20120;-93
2023/01/15 00:08:41;;;;;;;6.47;1.38;;;3.40;99.90;;;;;;4902353;29;20043;-91
2023/01/15 00:11:07;;;;;;;8.93;1.60;;;3.40;99.90;;;;;;4908116;29;20032;-92
2023/01/15 00:13:33;;;;;;;7.93;1.55;;;3.30;99.90;;;;;;4904351;29;20040;-90
2023/01/15 00:16:07;;;;;;;5.07;1.88;;;3.30;99.90;;;;;;4902410;29;20048;-91
2023/01/15 00:18:33;;;;;;;9.93;1.60;;;3.30;99.90;;;;;;4903685;29;20028;-90
2023/01/15 00:21:04;;;;;;;7.32;1.15;;;3.30;99.90;;;;;;4904816;29;20110;-90
2023/01/15 00:29:05;;;;;;;8.02;1.17;;;3.20;99.90;;;;;;4925485;29;20410;-91
2023/01/15 00:31:33;;;;;;;11.35;1.27;;;3.20;99.90;;;;;;4906439;29;20036;-90
2023/01/15 00:33:58;;;;;;;6.57;1.80;;;3.20;99.90;;;;;;4901979;29;20020;-91
2023/01/15 00:36:24;;;;;;;9.20;1.52;;;3.20;99.90;;;;;;4902326;29;20040;-91
2023/01/15 00:38:50;;;;;;;2.45;1.17;;;3.20;99.90;;;;;;4902304;29;20024;-91
2023/01/15 00:41:16;;;;;;;12.18;1.60;;;3.20;99.90;;;;;;4902191;29;20030;-92
2023/01/15 00:43:42;;;;;;;9.00;1.00;;;3.20;99.90;;;;;;4902096;29;20115;-91
2023/01/15 00:46:07;;;;;;;8.25;1.50;;;3.20;99.90;;;;;;4902037;29;20020;-92
2023/01/15 00:48:37;;;;;;;3.97;1.35;;;3.20;99.90;;;;;;4901999;29;20051;-92
2023/01/15 00:51:03;;;;;;;10.35;2.00;;;3.10;99.90;;;;;;4915758;29;20020;-92
2023/01/15 00:53:29;;;;;;;7.07;1.00;;;3.10;99.90;;;;;;4901814;29;20024;-92
2023/01/15 00:55:55;;;;;;;8.82;1.48;;;3.10;99.90;;;;;;4918602;29;20120;-91
2023/01/15 00:58:21;;;;;;;8.02;1.42;;;3.10;99.90;;;;;;4901677;29;20104;-91
2023/01/15 01:00:52;;;;;;;5.75;1.20;;;3.10;99.90;;;;;;4904945;29;20035;-91
2023/01/15 01:03:18;;;;;;;4.55;3.00;;;3.10;99.90;;;;;;4913204;29;20443;-90
2023/01/15 01:05:43;;;;;;;11.65;2.00;;;3.00;99.90;;;;;;4919962;29;20027;-91
2023/01/15 01:08:09;;;;;;;7.72;1.10;;;3.00;99.90;;;;;;4912591;29;20019;-90
2023/01/15 01:10:35;;;;;;;4.28;0.75;;;3.00;99.90;;;;;;4909610;29;20074;-91
2023/01/15 01:13:00;;;;;;;1.80;0.73;;;3.00;99.90;;;;;;4911163;29;20383;-90
2023/01/15 01:15:26;;;;;;;4.70;1.13;;;3.00;99.90;;;;;;4915155;29;20052;-92
2023/01/15 01:17:52;;;;;;;5.25;0.70;;;3.00;99.90;;;;;;4911917;29;20043;-92
2023/01/15 01:20:18;;;;;;;5.32;0.75;;;3.00;99.90;;;;;;4919272;29;20035;-91
2023/01/15 01:22:43;;;;;;;5.30;1.17;;;3.00;99.90;;;;;;4901185;29;20028;-90
2023/01/15 01:25:09;;;;;;;10.43;0.90;;;3.00;99.90;;;;;;4901484;29;20470;-92
2023/01/15 01:27:35;;;;;;;12.05;2.35;;;2.90;99.90;;;;;;4901433;29;20048;-89
2023/01/15 01:30:01;;;;;;;6.43;1.15;;;2.90;99.90;;;;;;4917475;29;20406;-90
2023/01/15 01:32:27;;;;;;;6.40;1.48;;;2.90;99.90;;;;;;4901810;29;20039;-90
2023/01/15 01:34:53;;;;;;;6.05;1.02;;;2.90;99.90;;;;;;4902028;29;20024;-91
2023/01/15 01:37:18;;;;;;;7.55;1.10;;;2.90;99.90;;;;;;4902303;29;20036;-92
2023/01/15 01:39:44;;;;;;;6.38;1.10;;;2.90;99.90;;;;;;4904178;29;20039;-92
2023/01/15 01:42:16;;;;;;;7.60;1.25;;;2.90;99.90;;;;;;4914364;29;20028;-91
2023/01/15 01:44:42;;;;;;;2.00;0.63;;;2.90;99.90;;;;;;4913805;29;20055;-90
2023/01/15 01:47:14;;;;;;;4.35;1.08;;;2.80;99.90;;;;;;4931076;29;20039;-91
2023/01/15 01:49:42;;;;;;;6.20;1.52;;;2.90;99.90;;;;;;4906130;29;20039;-90
2023/01/15 01:52:17;;;;;;;9.38;1.08;;;2.80;99.90;;;;;;4902283;29;20470;-90
2023/01/15 01:54:46;;;;;;;8.68;1.17;;;2.90;99.90;;;;;;4901995;29;20056;-92
2023/01/15 01:57:13;;;;;;;1.95;0.85;;;2.80;99.90;;;;;;4901611;29;20048;-92
2023/01/15 01:59:39;;;;;;;5.88;1.10;;;2.90;99.90;;;;;;4901696;29;20024;-92
2023/01/15 02:02:05;;;;;;;5.15;0.82;;;2.80;99.90;;;;;;4917533;29;20028;-90
2023/01/15 02:04:32;;;;;;;6.93;1.17;;;2.90;99.90;;;;;;4902311;29;20510;-92
2023/01/15 02:06:59;;;;;;;6.43;0.90;;;2.90;99.90;;;;;;4902499;29;20036;-90
2023/01/15 02:09:25;;;;;;;3.72;0.75;;;2.90;99.90;;;;;;4902875;29;20031;-90
2023/01/15 02:11:55;;;;;;;4.95;1.33;;;2.90;99.90;;;;;;4902783;29;20054;-91
2023/01/15 02:14:38;;;;;;;8.68;1.27;;;2.90;99.90;;;;;;4902013;29;20172;-91
2023/01/15 02:17:15;;;;;;;6.68;1.02;;;2.90;99.90;;;;;;4918362;29;20411;-92
2023/01/15 02:20:18;;;;;;;6.18;0.90;;;2.90;99.90;;;;;;4901054;29;20043;-92
2023/01/15 02:23:06;;;;;;;5.45;0.70;;;2.90;99.90;;;;;;4900964;29;20401;-92
2023/01/15 02:25:50;;;;;;;4.45;1.10;;;2.90;99.90;;;;;;4900758;29;20071;-92
2023/01/15 02:28:23;;;;;;;7.90;1.02;;;2.90;99.90;;;;;;4899915;29;20060;-90
2023/01/15 02:30:58;;;;;;;6.40;0.80;;;2.90;99.90;;;;;;4900808;29;20051;-90
2023/01/15 02:33:31;;;;;;;11.30;1.20;;;2.90;99.90;;;;;;4900793;29;20034;-91
2023/01/15 02:35:59;;;;;;;5.00;1.05;;;2.90;99.90;;;;;;4916685;29;20477;-91
2023/01/15 02:38:30;;;;;;;5.30;0.85;;;2.80;99.90;;;;;;4900401;29;20120;-91
2023/01/15 02:41:00;;;;;;;4.78;0.85;;;2.80;99.90;;;;;;4917591;29;20032;-90
2023/01/15 02:43:28;;;;;;;5.07;1.20;;;2.80;99.90;;;;;;4900619;29;20035;-90
2023/01/15 02:45:57;;;;;;;1.42;0.50;;;2.80;99.90;;;;;;4900802;29;20028;-92
2023/01/15 02:48:26;;;;;;;6.93;1.00;;;2.80;99.90;;;;;;4900388;29;20545;-90
2023/01/15 02:50:57;;;;;;;2.97;0.80;;;2.80;99.90;;;;;;4916034;29;20254;-90
2023/01/15 02:53:27;;;;;;;4.65;1.23;;;2.70;99.90;;;;;;4916037;29;20028;-91
2023/01/15 02:55:58;;;;;;;8.18;0.93;;;2.70;99.90;;;;;;4900166;29;20486;-92
2023/01/15 02:58:28;;;;;;;4.90;0.80;;;2.70;99.90;;;;;;4900892;29;20046;-91
2023/01/15 03:00:57;;;;;;;14.25;1.20;;;2.80;99.90;;;;;;4900313;29;20410;-91
2023/01/15 03:03:32;;;;;;;4.60;0.80;;;2.70;99.90;;;;;;4900278;29;20043;-90
2023/01/15 03:06:26;;;;;;;3.30;1.20;;;2.80;99.90;;;;;;4917550;29;20039;-91
2023/01/15 03:08:52;;;;;;;3.25;0.80;;;2.80;99.90;;;;;;4916913;29;20036;-90
2023/01/15 03:11:18;;;;;;;7.85;1.58;;;2.80;99.90;;;;;;4900654;29;20028;-91
2023/01/15 03:13:59;;;;;;;14.00;1.23;;;2.80;99.90;;;;;;4900274;29;20047;-91
2023/01/15 03:16:42;;;;;;;4.47;0.82;;;2.80;99.90;;;;;;4900275;29;20032;-90
2023/01/15 03:19:13;;;;;;;2.42;0.95;;;2.80;99.90;;;;;;4905237;29;20036;-91
2023/01/15 03:21:52;;;;;;;4.15;0.68;;;2.80;99.90;;;;;;4919510;29;20039;-92
2023/01/15 03:24:28;;;;;;;6.93;1.10;;;2.80;99.90;;;;;;4919356;29;20051;-91
2023/01/15 03:26:54;;;;;;;5.57;0.70;;;2.80;99.90;;;;;;4918763;29;20131;-91
2023/01/15 03:29:21;;;;;;;5.63;0.73;;;2.90;99.90;;;;;;4919163;29;20159;-91
2023/01/15 03:31:48;;;;;;;7.30;0.95;;;3.00;99.90;;;;;;4918989;29;20039;-91
2023/01/15 03:34:14;;;;;;;3.65;1.00;;;2.90;99.90;;;;;;4919102;29;20083;-92
2023/01/15 03:36:40;;;;;;;6.43;1.10;;;2.90;99.90;;;;;;4918847;29;20040;-91
2023/01/15 03:39:06;;;;;;;8.95;1.52;;;2.90;99.90;;;;;;4919075;29;20115;-92
2023/01/15 03:41:37;;;;;;;2.35;0.77;;;2.90;99.90;;;;;;4922458;29;20039;-91
2023/01/15 03:44:09;;;;;;;4.57;0.80;;;2.90;99.90;;;;;;4922741;29;20391;-92
2023/01/15 03:47:16;;;;;;;9.00;1.02;;;2.90;99.90;;;;;;4922275;29;20028;-90
2023/01/15 03:50:04;;;;;;;11.55;2.03;;;2.90;99.90;;;;;;4922442;29;20486;-91
2023/01/15 03:52:31;;;;;;;10.73;1.02;;;2.90;99.90;;;;;;4922294;29;20035;-92
2023/01/15 03:55:04;;;;;;;6.95;1.00;;;2.90;99.90;;;;;;4922707;29;20032;-92
2023/01/15 03:57:42;;;;;;;5.45;1.08;;;2.90;99.90;;;;;;4922210;29;20047;-89
2023/01/15 04:00:17;;;;;;;7.07;1.13;;;2.90;99.90;;;;;;4922443;29;20028;-89
2023/01/15 04:02:44;;;;;;;5.47;1.02;;;2.90;99.90;;;;;;4922697;29;20042;-94
2023/01/15 04:05:10;;;;;;;6.82;0.98;;;2.90;99.90;;;;;;4922344;29;20024;-92
2023/01/15 04:07:36;;;;;;;4.53;1.10;;;2.90;99.90;;;;;;4922019;29;20441;-92
2023/01/15 04:10:05;;;;;;;9.10;0.90;;;2.90;99.90;;;;;;4921894;29;20031;-90
2023/01/15 04:12:32;;;;;;;7.07;1.05;;;2.90;99.90;;;;;;4922283;29;20036;-91
2023/01/15 04:14:58;;;;;;;6.03;0.55;;;2.90;99.90;;;;;;4922330;29;20102;-91
2023/01/15 04:17:24;;;;;;;5.90;0.90;;;3.00;99.90;;;;;;4921894;29;20375;-90
2023/01/15 04:19:50;;;;;;;2.90;0.82;;;3.00;99.90;;;;;;4921898;29;20024;-91
2023/01/15 04:22:16;;;;;;;5.25;1.02;;;3.00;99.90;;;;;;4921947;29;20040;-90
2023/01/15 04:24:41;;;;;;;6.35;0.60;;;3.00;99.90;;;;;;4922115;29;20493;-90
2023/01/15 04:27:07;;;;;;;7.28;0.88;;;3.10;99.90;;;;;;4921304;29;20054;-90
2023/01/15 04:29:33;;;;;;;2.08;0.50;;;3.10;99.90;;;;;;4921593;29;20027;-90
2023/01/15 04:31:58;;;;;;;8.55;1.10;;;3.10;99.90;;;;;;4921690;29;20130;-89
2023/01/15 04:34:26;;;;;;;9.75;1.00;;;3.10;99.90;;;;;;4921767;29;20046;-89
2023/01/15 04:36:52;;;;;;;4.15;0.82;;;3.20;99.90;;;;;;4921559;29;20042;-90
2023/01/15 04:39:18;;;;;;;5.60;1.25;;;3.20;99.90;;;;;;4921493;29;20074;-88
2023/01/15 04:44:28;;;;;;;3.50;0.60;;;3.20;99.90;;;;;;4938868;29;20110;-90
2023/01/15 04:46:56;;;;;;;6.72;0.80;;;3.20;99.90;;;;;;4921600;29;20064;-90
2023/01/15 04:49:22;;;;;;;2.22;0.82;;;3.20;99.90;;;;;;4921247;29;20094;-89
2023/01/15 04:51:47;;;;;;;5.18;0.70;;;3.20;99.90;;;;;;4920840;29;20032;-89
2023/01/15 04:54:15;;;;;;;5.85;0.70;;;3.20;99.90;;;;;;4921325;29;20027;-91
2023/01/15 04:56:43;;;;;;;6.25;0.50;;;3.20;99.90;;;;;;4921045;29;20043;-90
2023/01/15 04:59:09;;;;;;;5.32;0.80;;;3.20;99.90;;;;;;4906295;29;20028;-91
2023/01/15 05:01:35;;;;;;;1.42;0.60;;;3.20;99.90;;;;;;4902361;29;20507;-89
2023/01/15 05:04:02;;;;;;;4.18;0.50;;;3.30;99.90;;;;;;4902292;29;20482;-88
2023/01/15 05:06:28;;;;;;;5.22;0.75;;;3.30;99.90;;;;;;4902185;29;20028;-90
2023/01/15 05:08:53;;;;;;;4.65;0.85;;;3.40;99.90;;;;;;4903953;29;20031;-89
2023/01/15 05:11:20;;;;;;;5.53;0.63;;;3.40;99.90;;;;;;4906464;29;20024;-90
2023/01/15 05:13:45;;;;;;;8.05;1.08;;;3.50;99.90;;;;;;4913856;29;20035;-90
2023/01/15 05:16:15;;;;;;;7.45;0.85;;;3.40;99.90;;;;;;4917948;29;20032;-89
2023/01/15 05:18:43;;;;;;;2.88;0.60;;;3.50;99.90;;;;;;4907384;29;20060;-90
2023/01/15 05:21:23;;;;;;;2.75;0.73;;;3.50;99.90;;;;;;4904670;29;20070;-92
2023/01/15 05:23:51;;;;;;;3.67;0.80;;;3.50;99.90;;;;;;4902757;29;20032;-91
2023/01/15 05:26:17;;;;;;;6.35;1.10;;;3.50;99.90;;;;;;4902410;29;20075;-90
2023/01/15 05:28:44;;;;;;;2.50;0.60;;;3.60;99.90;;;;;;4902524;29;20442;-90
2023/01/15 05:31:15;;;;;;;6.40;0.70;;;3.60;99.90;;;;;;4901949;29;20024;-91
2023/01/15 05:33:42;;;;;;;3.25;0.60;;;3.70;99.90;;;;;;4901740;29;20032;-91
2023/01/15 05:36:11;;;;;;;4.47;0.82;;;3.60;99.90;;;;;;4901834;29;20036;-89
2023/01/15 05:38:38;;;;;;;0.82;0.40;;;3.70;99.90;;;;;;4901886;29;20079;-90
2023/01/15 05:43:50;;;;;;;3.65;0.50;;;3.70;99.90;;;;;;4918650;29;20035;-92
2023/01/15 05:46:16;;;;;;;5.15;0.77;;;3.70;99.90;;;;;;4901477;29;20111;-90
2023/01/15 05:48:42;;;;;;;3.40;0.52;;;3.70;99.90;;;;;;4901583;29;20043;-91
2023/01/15 05:51:07;;;;;;;4.25;0.47;;;3.80;99.90;;;;;;4901912;29;20492;-89
2023/01/15 05:53:33;;;;;;;3.97;0.93;;;3.80;99.90;;;;;;4901429;29;20494;-92
2023/01/15 05:56:03;;;;;;;2.35;0.57;;;3.80;99.90;;;;;;4901131;29;20032;-91
2023/01/15 05:58:29;;;;;;;9.60;0.73;;;3.80;99.90;;;;;;4901047;29;20032;-92
2023/01/15 06:00:55;;;;;;;3.33;0.55;;;3.90;99.90;;;;;;4901573;29;20039;-90
2023/01/15 06:03:22;;;;;;;1.33;0.50;;;3.90;99.90;;;;;;4900558;29;20399;-90
2023/01/15 06:05:52;;;;;;;0.80;0.20;;;3.90;99.90;;;;;;4901084;29;20032;-91
2023/01/15 06:08:18;;;;;;;0.25;0.15;;;3.90;99.90;;;;;;4900881;29;20039;-91
2023/01/15 06:10:44;;;;;;;4.60;1.27;;;3.90;99.90;;;;;;4899541;29;20028;-89
2023/01/15 06:13:10;;;;;;;2.75;0.52;;;4.00;99.90;;;;;;4900913;29;20135;-88
2023/01/15 06:15:35;;;;;;;7.55;1.60;;;3.90;99.90;;;;;;4900639;29;20028;-88
2023/01/15 06:18:01;;;;;;;4.55;1.08;;;3.90;99.90;;;;;;4900509;29;20032;-89
2023/01/15 06:20:27;;;;;;;9.98;1.15;;;3.90;99.90;;;;;;4900698;29;20043;-87
2023/01/15 06:22:52;;;;;;;4.82;1.00;;;3.90;99.90;;;;;;4900643;29;20028;-89
2023/01/15 06:25:18;;;;;;;3.20;0.47;;;3.80;99.90;;;;;;4900573;29;20153;-90
2023/01/15 06:27:43;;;;;;;6.38;0.80;;;3.80;99.90;;;;;;4900470;29;20044;-88
2023/01/15 06:30:10;;;;;;;3.25;0.60;;;3.70;99.90;;;;;;4900631;29;20471;-91
2023/01/15 06:32:36;;;;;;;1.65;0.70;;;3.80;99.90;;;;;;4900289;29;20025;-89
2023/01/15 06:35:02;;;;;;;4.55;0.70;;;3.70;99.90;;;;;;4900611;29;20032;-88
2023/01/15 06:37:28;;;;;;;2.72;0.60;;;3.70;99.90;;;;;;4900080;29;20040;-88
2023/01/15 06:39:53;;;;;;;3.65;1.20;;;3.70;99.90;;;;;;4900460;29;20439;-87
2023/01/15 06:47:48;;;;;;;5.28;0.90;;;3.70;99.90;;;;;;4917539;29;20586;-89
2023/01/15 06:50:14;;;;;;;9.80;1.00;;;3.70;99.90;;;;;;4900668;29;20072;-89
2023/01/15 06:52:40;;;;;;;8.90;3.03;;;3.60;99.90;;;;;;4900363;29;20485;-89
2023/01/15 06:55:06;;;;;;;7.13;1.67;;;3.60;99.90;;;;;;4900146;29;20040;-89
2023/01/15 06:57:32;;;;;;;6.05;2.53;;;3.60;99.90;;;;;;4908023;29;20131;-90
2023/01/15 06:59:57;;;;;;;13.70;2.85;;;3.60;99.90;;;;;;4901748;29;20064;-88
2023/01/15 07:02:23;;;;;;;13.90;3.42;;;3.60;99.90;;;;;;4899867;29;20080;-89
2023/01/15 07:04:50;;;;;;;11.57;4.78;;;3.60;99.90;;;;;;4899688;29;20406;-89
2023/01/15 07:07:18;;;;;;;10.63;4.20;;;3.60;99.90;;;;;;4899939;29;20032;-89
2023/01/15 07:09:44;;;;;;;12.38;4.03;;;3.60;99.90;;;;;;4899653;29;20036;-88
2023/01/15 07:12:10;;;;;;;10.13;3.22;;;3.60;99.90;;;;;;4899453;29;20028;-89
2023/01/15 07:14:36;;;;;;;6.53;1.88;;;3.60;99.90;;;;;;4900105;29;20492;-89
2023/01/15 07:17:02;;;;;;;4.57;1.45;;;3.60;99.90;;;;;;4903683;29;20181;-90
2023/01/15 07:19:27;;;;;;;4.45;1.58;;;3.50;99.90;;;;;;4903610;29;20031;-88
2023/01/15 07:21:53;;;;;;;11.73;1.73;;;3.50;99.90;;;;;;4902728;29;20031;-89
2023/01/15 07:24:19;;;;;;;5.05;1.50;;;3.50;99.90;;;;;;4903422;29;20028;-88
2023/01/15 07:26:45;;;;;;;4.13;1.10;;;3.40;99.90;;;;;;4907577;29;20044;-90
2023/01/15 07:29:11;;;;;;;6.07;2.63;;;3.40;99.90;;;;;;4911895;29;20027;-90
2023/01/15 07:31:37;;;;;;;7.53;1.70;;;3.30;99.90;;;;;;4920529;29;20508;-90
2023/01/15 07:34:03;;;;;;;3.13;1.73;;;3.30;99.90;;;;;;4911844;29;20028;-90
2023/01/15 07:36:28;;;;;;;11.82;3.97;;;3.30;99.90;;;;;;4913932;29;20035;-91
2023/01/15 07:38:54;;;;;;;7.68;2.97;;;3.30;99.90;;;;;;4911508;29;20112;-89
2023/01/15 07:50:17;;;;;;;4.95;1.92;;;3.20;99.90;;;;;;4965982;23;20091;-91
2023/01/15 07:52:43;;;;;;;4.75;1.50;;;3.30;99.90;;;;;;4940995;29;20023;-90
2023/01/15 07:55:11;;;;;;;7.57;1.00;;;3.20;99.90;;;;;;4940704;29;20043;-90
2023/01/15 07:57:37;;;;;;;7.28;1.73;;;3.30;99.90;;;;;;4957908;29;20032;-89
2023/01/15 08:00:09;;;;;;;7.47;1.73;;;3.30;99.90;;;;;;4957321;29;20524;-90
2023/01/15 08:02:34;;;;;;;4.32;1.38;;;3.30;99.90;;;;;;4957877;29;20027;-90
2023/01/15 08:05:00;;;;;;;5.68;0.80;;;3.30;99.90;;;;;;4940356;29;20026;-89
2023/01/15 08:07:26;;;;;;;5.97;0.75;;;3.40;99.90;;;;;;4940780;29;20027;-89
2023/01/15 08:09:52;;;;;;;2.70;0.70;;;3.40;99.90;;;;;;4940701;29;20055;-89
2023/01/15 08:15:15;;;;;;;4.00;1.30;;;3.40;99.90;;;;;;4956585;29;20094;-90
2023/01/15 08:17:46;;;;;;;5.90;0.70;;;3.40;99.90;;;;;;4943286;29;20042;-90
2023/01/15 08:20:15;;;;;;;1.67;0.60;;;3.50;99.90;;;;;;4941947;29;20020;-90
2023/01/15 08:22:41;;;;;;;5.43;0.88;;;3.50;99.90;;;;;;4925491;29;20102;-89
2023/01/15 08:25:08;;;;;;;1.38;0.43;;;3.50;99.90;;;;;;4920995;29;20054;-89
2023/01/15 08:27:36;;;;;;;2.78;1.10;;;3.50;99.90;;;;;;4935908;29;20032;-89
2023/01/15 08:30:03;;;;;;;5.53;0.93;;;3.50;99.90;;;;;;4934486;29;20063;-88
2023/01/15 08:32:29;;;;;;;6.47;1.33;;;3.50;99.90;;;;;;4920849;29;20389;-88
2023/01/15 08:34:55;;;;;;;3.20;0.77;;;3.50;99.90;;;;;;4921020;29;20028;-89
2023/01/15 08:37:20;;;;;;;1.27;1.13;;;3.50;99.90;;;;;;4920990;29;20559;-88
2023/01/15 08:39:46;;;;;;;2.95;0.82;;;3.60;99.90;;;;;;4921050;29;20027;-88
2023/01/15 08:42:12;;;;;;;1.13;0.40;;;3.60;99.90;;;;;;4919650;29;20027;-88
2023/01/15 08:44:37;;;;;;;0.43;0.20;;;3.60;99.90;;;;;;4937153;29;20020;-88
2023/01/15 08:47:03;;;;;;;2.15;0.65;;;3.60;99.90;;;;;;4919744;29;20038;-88
2023/01/15 08:49:29;;;;;;;1.35;0.60;;;3.60;99.90;;;;;;4919417;29;20040;-88
2023/01/15 08:51:54;;;;;;;0.98;0.47;;;3.60;99.90;;;;;;4920003;29;20035;-88
2023/01/15 08:54:23;;;;;;;2.67;0.57;;;3.60;99.90;;;;;;4936897;29;20031;-88
2023/01/15 08:56:49;;;;;;;1.15;0.55;;;3.60;99.90;;;;;;4937063;29;20043;-88
2023/01/15 08:59:15;;;;;;;3.60;0.70;;;3.60;99.90;;;;;;4920530;29;20119;-88
2023/01/15 09:01:41;;;;;;;3.35;1.17;;;3.60;99.90;;;;;;4937380;29;20102;-90
2023/01/15 09:04:08;;;;;;;1.02;0.47;;;3.60;99.90;;;;;;4920074;29;20028;-88
2023/01/15 09:06:46;;;;;;;1.48;0.60;;;3.60;99.90;;;;;;4920239;29;20112;-88
2023/01/15 09:09:12;;;;;;;0.60;0.20;;;3.60;99.90;;;;;;4919202;29;20126;-88
2023/01/15 09:11:39;;;;;;;2.20;0.40;;;3.60;99.90;;;;;;4919775;29;20034;-88
2023/01/15 09:14:06;;;;;;;0.38;0.38;;;3.60;99.90;;;;;;4919563;29;20036;-88
2023/01/15 09:16:32;;;;;;;1.38;0.20;;;3.60;99.90;;;;;;4936692;29;20046;-88
2023/01/15 09:18:58;;;;;;;0.52;0.40;;;3.60;99.90;;;;;;4920176;29;20026;-88
2023/01/15 09:21:24;;;;;;;1.63;0.55;;;3.60;99.90;;;;;;4919810;29;20110;-88
2023/01/15 09:23:50;;;;;;;1.27;0.35;;;3.60;99.90;;;;;;4918941;29;20537;-88
2023/01/15 09:26:31;;;;;;;1.63;0.50;;;3.60;99.90;;;;;;4919928;29;20028;-89
2023/01/15 09:28:57;;;;;;;1.77;0.50;;;3.70;99.90;;;;;;4919627;29;20106;-89
2023/01/15 09:31:24;;;;;;;2.30;0.40;;;3.70;99.90;;;;;;4936547;29;20598;-90
2023/01/15 09:33:50;;;;;;;1.70;0.40;;;3.70;99.90;;;;;;4920518;29;20086;-89
2023/01/15 09:36:36;;;;;;;3.10;0.80;;;3.70;99.90;;;;;;4936499;29;20529;-88
2023/01/15 09:39:03;;;;;;;4.43;0.93;;;3.70;99.90;;;;;;4919170;29;20397;-89
2023/01/15 09:42:05;;;;;;;2.45;1.60;;;3.80;99.90;;;;;;4934870;29;20024;-88
2023/01/15 09:45:05;;;;;;;1.52;0.55;;;3.80;99.90;;;;;;4901983;29;20040;-89
2023/01/15 09:47:39;;;;;;;0.90;0.70;;;3.80;99.90;;;;;;4934105;29;20028;-88
2023/01/15 09:50:24;;;;;;;1.75;0.45;;;3.80;99.90;;;;;;4918954;29;20040;-88
2023/01/15 09:52:58;;;;;;;2.38;0.68;;;3.80;99.90;;;;;;4918266;29;20040;-88
2023/01/15 09:55:30;;;;;;;2.78;0.98;;;3.90;99.90;;;;;;4933907;29;20126;-89
2023/01/15 09:57:59;;;;;;;0.82;0.30;;;3.90;99.90;;;;;;4936770;29;20114;-88
2023/01/15 10:00:28;;;;;;;4.82;1.15;;;4.00;99.90;;;;;;4919698;29;20023;-88
2023/01/15 10:03:06;;;;;;;0.82;0.60;;;3.90;99.90;;;;;;4919519;29;20019;-89
2023/01/15 10:05:57;;;;;;;1.48;0.70;;;4.00;99.90;;;;;;4936084;29;20485;-90
2023/01/15 10:08:31;;;;;;;2.38;0.70;;;4.00;99.90;;;;;;4936528;29;20102;-91
2023/01/15 10:11:17;;;;;;;2.63;0.65;;;4.00;99.90;;;;;;4920049;29;20035;-89
2023/01/15 10:13:58;;;;;;;1.05;0.60;;;4.10;99.90;;;;;;4936672;29;20024;-89
2023/01/15 10:16:28;;;;;;;3.30;0.60;;;4.10;99.90;;;;;;4919093;29;20042;-89
2023/01/15 10:18:56;;;;;;;0.60;0.52;;;4.10;99.90;;;;;;4919028;29;20040;-89
2023/01/15 10:21:32;;;;;;;3.90;0.98;;;4.10;99.90;;;;;;4918984;29;20079;-90
2023/01/15 10:24:12;;;;;;;4.25;1.13;;;4.10;99.90;;;;;;4917473;29;20027;-89
2023/01/15 10:26:43;;;;;;;3.55;1.23;;;4.10;99.90;;;;;;4918574;29;20035;-89
2023/01/15 10:29:39;;;;;;;8.98;1.77;;;4.10;99.90;;;;;;4918654;29;20107;-89
2023/01/15 10:32:17;;;;;;;9.15;2.85;;;4.20;99.90;;;;;;4917458;29;20043;-89
2023/01/15 10:35:03;;;;;;;13.30;5.53;;;4.20;99.90;;;;;;4918434;29;20035;-90
2023/01/15 10:37:40;;;;;;;13.98;5.60;;;4.20;99.90;;;;;;4932149;29;20122;-88
2023/01/15 10:40:36;;;;;;;7.78;3.95;;;4.20;99.90;;;;;;4917501;29;20031;-88
2023/01/15 10:43:20;;;;;;;6.85;2.40;;;4.30;99.90;;;;;;4917112;29;20042;-89
2023/01/15 10:45:49;;;;;;;5.55;1.70;;;4.30;99.90;;;;;;4934342;29;20020;-90
2023/01/15 10:48:51;;;;;;;6.30;1.95;;;4.30;99.90;;;;;;4919056;29;20049;-90
2023/01/15 10:51:25;;;;;;;5.55;2.05;;;4.30;99.90;;;;;;4935085;29;20028;-88
2023/01/15 10:54:15;;;;;;;7.72;3.17;;;4.30;99.90;;;;;;4935380;29;20094;-89
2023/01/15 10:57:04;;;;;;;3.92;1.80;;;4.30;99.90;;;;;;4934964;29;20043;-89
2023/01/15 10:59:40;;;;;;;6.93;3.08;;;4.30;99.90;;;;;;4935740;29;20056;-89
2023/01/15 11:02:23;;;;;;;5.13;2.45;;;4.40;99.90;;;;;;4916984;29;20023;-89
2023/01/15 11:04:49;;;;;;;4.55;1.60;;;4.40;99.90;;;;;;4918840;29;20111;-91
2023/01/15 11:07:16;;;;;;;4.05;1.30;;;4.50;99.90;;;;;;4919684;29;20055;-89
2023/01/15 11:09:42;;;;;;;3.75;1.30;;;4.70;99.90;;;;;;4919295;29;20056;-89
2023/01/15 11:20:42;;;;;;;1.77;1.20;;;5.50;99.90;;;;;;4938000;29;20149;-90
2023/01/15 11:23:08;;;;;;;3.63;1.63;;;5.60;99.90;;;;;;4921144;29;20038;-89
2023/01/15 11:25:35;;;;;;;2.85;1.02;;;5.70;99.90;;;;;;4920301;29;20023;-88
2023/01/15 11:28:05;;;;;;;0.77;0.75;;;5.80;99.90;;;;;;4919888;29;20058;-90
2023/01/15 11:30:36;;;;;;;2.20;1.10;;;5.80;99.90;;;;;;4919470;29;20087;-89
2023/01/15 11:33:04;;;;;;;1.65;1.15;;;6.00;99.90;;;;;;4917125;29;20489;-88
2023/01/15 11:35:31;;;;;;;3.97;1.50;;;6.10;99.90;;;;;;4935736;29;20024;-89
2023/01/15 11:38:13;;;;;;;2.50;1.42;;;6.00;99.90;;;;;;4918766;29;20552;-87
2023/01/15 11:40:49;;;;;;;6.78;2.08;;;5.90;99.90;;;;;;4918158;29;20032;-88
2023/01/15 11:52:25;;;;;;;7.95;3.35;;;5.50;99.90;;;;;;4934505;29;20108;-89
2023/01/15 11:54:54;;;;;;;9.30;4.43;;;5.40;99.90;;;;;;4917089;29;20046;-89
2023/01/15 11:57:31;;;;;;;9.38;3.47;;;5.40;99.90;;;;;;4918336;29;20032;-89
2023/01/15 11:59:58;;;;;;;14.30;4.63;;;5.30;99.90;;;;;;4932440;29;20059;-89
2023/01/15 12:02:46;;;;;;;17.52;6.00;;;5.30;99.90;;;;;;4920188;29;20409;-89
2023/01/15 12:05:20;;;;;;;9.07;3.95;;;5.30;99.90;;;;;;4936703;29;20065;-89
2023/01/15 12:07:51;;;;;;;17.55;5.70;;;5.30;99.90;;;;;;4919991;29;20032;-90
2023/01/15 12:11:02;;;;;;;8.13;4.57;;;5.30;99.90;;;;;;4919654;29;20484;-89
2023/01/15 12:13:17;;;;;;;17.13;7.85;;;5.30;99.90;;;;;;4938836;29;20477;-90
2023/01/15 12:16:31;;;;;;;16.02;6.50;;;5.30;99.90;;;;;;4939020;29;20060;-89
2023/01/15 12:19:16;;;;;;;26.75;9.02;;;5.30;99.90;;;;;;4863928;29;20037;-90
2023/01/15 12:21:47;;;;;;;18.92;6.82;;;5.30;99.90;;;;;;4864449;29;20040;-91
2023/01/15 12:24:40;;;;;;;19.83;7.15;;;5.50;99.90;;;;;;4859492;29;20494;-92
2023/01/15 12:27:14;;;;;;;11.77;6.20;;;5.60;99.90;;;;;;4879316;29;20035;-90
2023/01/15 12:29:50;;;;;;;10.00;5.25;;;5.70;99.90;;;;;;4879326;29;20040;-91
2023/01/15 12:32:30;;;;;;;15.23;4.70;;;5.70;99.90;;;;;;4863518;29;20025;-91
2023/01/15 12:35:01;;;;;;;13.90;5.00;;;5.70;99.90;;;;;;4865556;29;20376;-90
2023/01/15 12:37:36;;;;;;;12.68;5.20;;;5.80;99.90;;;;;;4863005;29;20040;-90
2023/01/15 12:40:16;;;;;;;11.38;5.50;;;5.80;99.90;;;;;;4883392;29;20029;-89
2023/01/15 12:45:35;;;;;;;19.83;5.25;;;5.80;99.90;;;;;;4882779;29;20041;-91
2023/01/15 12:48:25;;;;;;;10.23;3.83;;;5.80;99.90;;;;;;4865842;29;20058;-90
2023/01/15 12:50:53;;;;;;;16.47;4.13;;;5.80;99.90;;;;;;4876729;29;20052;-90
2023/01/15 12:53:43;;;;;;;14.23;4.50;;;5.80;99.90;;;;;;4863244;29;20037;-89
2023/01/15 12:56:28;;;;;;;14.90;4.07;;;5.80;99.90;;;;;;4910051;29;20107;-90
2023/01/15 12:59:21;;;;;;;16.92;5.28;;;5.80;99.90;;;;;;4931335;29;20474;-90
2023/01/15 13:02:11;;;;;;;12.00;3.92;;;5.70;99.90;;;;;;4927116;29;20451;-91
2023/01/15 13:04:51;;;;;;;19.70;5.20;;;5.70;99.90;;;;;;4917660;29;20024;-91
2023/01/15 13:07:30;;;;;;;12.55;3.92;;;5.70;99.90;;;;;;4921040;29;20028;-91
2023/01/15 13:10:16;;;;;;;17.00;3.75;;;5.70;99.90;;;;;;4920723;29;20035;-91
2023/01/15 13:12:42;;;;;;;21.25;4.90;;;5.70;99.90;;;;;;4927726;29;20094;-89
2023/01/15 13:15:18;;;;;;;22.73;4.38;;;5.70;99.90;;;;;;4904734;29;20628;-89
2023/01/15 13:18:02;;;;;;;18.05;5.10;;;5.80;99.90;;;;;;4909818;29;20055;-88
2023/01/15 13:20:50;;;;;;;14.38;4.05;;;5.80;99.90;;;;;;4933068;29;20083;-89
2023/01/15 13:23:34;;;;;;;18.33;4.63;;;5.90;99.90;;;;;;4927242;29;20039;-88
2023/01/15 13:26:10;;;;;;;14.40;4.38;;;6.00;99.90;;;;;;4924216;29;20028;-89
2023/01/15 13:28:57;;;;;;;14.82;4.00;;;6.10;99.90;;;;;;4902769;29;20032;-89
2023/01/15 13:31:45;;;;;;;19.90;5.00;;;6.10;99.90;;;;;;4929664;29;20016;-90
2023/01/15 13:34:39;;;;;;;22.80;5.10;;;6.20;99.90;;;;;;4919759;29;20038;-91
2023/01/15 13:37:32;;;;;;;13.85;3.88;;;6.30;99.90;;;;;;4921208;29;20549;-89
2023/01/15 13:40:24;;;;;;;13.20;2.97;;;6.30;99.90;;;;;;4925237;29;20042;-91
2023/01/15 13:42:51;;;;;;;13.95;2.83;;;6.40;99.90;;;;;;4919168;29;20032;-92
2023/01/15 13:45:42;;;;;;;11.13;3.75;;;6.50;99.90;;;;;;4916328;29;20031;-90
2023/01/15 13:48:26;;;;;;;20.73;9.32;;;6.60;99.90;;;;;;4935785;29;20046;-90
2023/01/15 13:50:56;;;;;;;41.20;15.07;;;6.70;99.90;;;;;;4908099;29;20059;-90
2023/01/15 13:53:33;;;;;;;21.03;8.83;;;6.70;99.90;;;;;;4916872;29;20023;-91
2023/01/15 13:56:04;;;;;;;15.38;3.28;;;6.70;99.90;;;;;;4919761;29;20279;-90
2023/01/15 13:58:38;;;;;;;10.60;3.75;;;6.60;99.90;;;;;;4919406;29;20390;-90
2023/01/15 14:01:19;;;;;;;20.98;3.60;;;6.60;99.90;;;;;;4919395;29;20196;-90
2023/01/15 14:04:00;;;;;;;15.15;4.68;;;6.60;99.90;;;;;;4935935;29;20032;-91
2023/01/15 14:06:41;;;;;;;10.23;4.72;;;6.70;99.90;;;;;;4929737;29;20027;-91